Time;durP1;ratioP1;P1;durP2;ratioP2;P2;SDS_P1;SDS_P2;PMS_P1;PMS_P2;Temp;Humidity;BMP_temperature;BMP_pressure;BME280_temperature;BME280_humidity;BME280_pressure;Samples;Min_cycle;Max_cycle;Signal;HPM_P1;HPM_P2
2023/08/25 00:00:38;;;;;;;12.18;8.95;;;16.70;99.90;;;;;;5034563;28;20037;-74
2023/08/25 00:03:06;;;;;;;10.38;9.38;;;16.50;99.90;;;;;;5022098;28;20029;-74
2023/08/25 00:05:39;;;;;;;9.77;8.88;;;16.40;99.90;;;;;;5034572;28;20105;-76
2023/08/25 00:08:06;;;;;;;11.02;9.25;;;16.10;99.90;;;;;;5034996;28;20400;-74
2023/08/25 00:10:32;;;;;;;12.13;10.13;;;16.00;99.90;;;;;;5032825;28;20064;-76
2023/08/25 00:12:58;;;;;;;9.65;8.57;;;15.90;99.90;;;;;;5034701;28;20021;-77
2023/08/25 00:15:24;;;;;;;12.43;9.98;;;15.80;99.90;;;;;;5034133;28;20471;-74
2023/08/25 00:17:50;;;;;;;13.23;10.13;;;15.80;99.90;;;;;;5033175;28;20049;-74
2023/08/25 00:20:16;;;;;;;13.50;9.15;;;15.80;99.90;;;;;;5034289;28;20032;-76
2023/08/25 00:22:42;;;;;;;10.90;8.95;;;15.80;99.90;;;;;;5033422;28;20033;-75
2023/08/25 00:25:08;;;;;;;11.10;9.95;;;15.70;99.90;;;;;;5033852;28;20029;-74
2023/08/25 00:27:34;;;;;;;15.48;9.40;;;15.80;99.90;;;;;;5034595;28;20025;-74
2023/08/25 00:30:00;;;;;;;10.60;8.35;;;15.80;99.90;;;;;;5032453;28;20391;-76
2023/08/25 00:32:25;;;;;;;12.13;9.07;;;15.80;99.90;;;;;;5033056;28;20021;-74
2023/08/25 00:34:51;;;;;;;13.40;9.35;;;15.80;99.90;;;;;;5033928;28;20515;-74
2023/08/25 00:37:17;;;;;;;10.50;8.98;;;15.70;99.90;;;;;;5034449;28;20032;-76
2023/08/25 00:39:43;;;;;;;12.05;9.88;;;15.70;99.90;;;;;;5032474;28;20560;-76
2023/08/25 00:42:08;;;;;;;11.75;8.88;;;15.60;99.90;;;;;;5034242;28;20025;-74
2023/08/25 00:44:34;;;;;;;12.68;9.65;;;15.60;99.90;;;;;;5033488;28;20029;-76
2023/08/25 00:47:00;;;;;;;10.77;9.27;;;15.60;99.90;;;;;;5033785;28;20071;-75
2023/08/25 00:49:27;;;;;;;10.05;8.95;;;15.60;99.90;;;;;;5033357;28;20104;-76
2023/08/25 00:51:53;;;;;;;13.07;9.35;;;15.60;99.90;;;;;;5032687;28;20057;-75
2023/08/25 00:54:22;;;;;;;12.90;9.48;;;15.60;99.90;;;;;;5038809;28;20028;-76
2023/08/25 00:56:50;;;;;;;10.27;9.27;;;15.60;99.90;;;;;;5032927;28;20013;-74
2023/08/25 00:59:17;;;;;;;11.55;10.40;;;15.50;99.90;;;;;;5031547;28;20029;-76
2023/08/25 01:01:44;;;;;;;11.65;10.30;;;15.50;99.90;;;;;;5033300;28;20021;-74
2023/08/25 01:04:10;;;;;;;12.98;9.70;;;15.50;99.90;;;;;;5032826;28;20501;-76
2023/08/25 01:06:37;;;;;;;12.25;9.02;;;15.50;99.90;;;;;;5033651;28;20022;-75
2023/08/25 01:09:04;;;;;;;11.55;10.35;;;15.40;99.90;;;;;;5031482;28;20499;-75
2023/08/25 01:11:40;;;;;;;12.85;10.27;;;15.40;99.90;;;;;;5032217;28;20117;-74
2023/08/25 01:14:35;;;;;;;11.88;10.20;;;15.40;99.90;;;;;;5031963;28;20453;-75
2023/08/25 01:17:06;;;;;;;15.73;10.05;;;15.40;99.90;;;;;;5027952;28;20058;-77
2023/08/25 01:19:55;;;;;;;11.60;10.10;;;15.30;99.90;;;;;;5033229;28;20017;-76
2023/08/25 01:22:53;;;;;;;9.88;8.80;;;15.30;99.90;;;;;;5033214;28;20020;-76
2023/08/25 01:25:29;;;;;;;11.55;9.43;;;15.30;99.90;;;;;;5031750;28;20033;-75
2023/08/25 01:27:58;;;;;;;9.48;8.48;;;15.20;99.90;;;;;;5032038;28;20611;-74
2023/08/25 01:30:26;;;;;;;15.00;10.35;;;15.20;99.90;;;;;;5043449;28;20479;-74
2023/08/25 01:32:52;;;;;;;10.23;8.73;;;15.20;99.90;;;;;;5032015;28;20441;-74
2023/08/25 01:35:23;;;;;;;10.85;8.75;;;15.20;99.90;;;;;;5032665;28;20024;-74
2023/08/25 01:38:29;;;;;;;11.48;9.57;;;15.20;99.90;;;;;;5031984;28;20029;-76
2023/08/25 01:41:12;;;;;;;9.43;8.30;;;15.10;99.90;;;;;;5023762;28;20038;-74
2023/08/25 01:43:40;;;;;;;9.35;8.35;;;15.10;99.90;;;;;;5021389;28;20033;-76
2023/08/25 01:46:09;;;;;;;9.93;8.93;;;15.10;99.90;;;;;;5032750;28;20017;-76
2023/08/25 01:48:36;;;;;;;10.50;8.60;;;15.10;99.90;;;;;;5032715;28;20028;-74
2023/08/25 01:51:02;;;;;;;12.48;8.98;;;15.10;99.90;;;;;;5024992;28;20036;-76
2023/08/25 01:53:29;;;;;;;9.60;8.60;;;15.00;99.90;;;;;;5032162;28;20025;-76
2023/08/25 01:55:55;;;;;;;10.15;9.00;;;15.00;99.90;;;;;;5031372;28;20025;-76
2023/08/25 01:58:21;;;;;;;10.38;9.27;;;15.00;99.90;;;;;;5031734;28;20029;-76
2023/08/25 02:00:46;;;;;;;10.48;8.75;;;14.90;99.90;;;;;;5032549;28;20032;-76
2023/08/25 02:03:13;;;;;;;9.10;8.20;;;14.90;99.90;;;;;;5032269;28;20029;-74
2023/08/25 02:05:40;;;;;;;13.38;9.25;;;14.90;99.90;;;;;;5031621;28;20071;-74
2023/08/25 02:08:06;;;;;;;10.38;8.77;;;14.90;99.90;;;;;;5032510;28;20053;-76
2023/08/25 02:10:32;;;;;;;9.88;8.88;;;14.90;99.90;;;;;;5030917;28;20071;-74
2023/08/25 02:12:58;;;;;;;9.75;8.15;;;14.90;99.90;;;;;;5032395;28;20013;-74
2023/08/25 02:15:23;;;;;;;13.27;8.68;;;14.90;99.90;;;;;;5032512;28;20109;-76
2023/08/25 02:17:49;;;;;;;9.73;8.45;;;14.90;99.90;;;;;;5032476;28;20068;-75
2023/08/25 02:20:14;;;;;;;9.30;8.43;;;14.80;99.90;;;;;;5032260;28;20049;-76
2023/08/25 02:22:40;;;;;;;9.00;8.10;;;14.90;99.90;;;;;;5032402;28;20018;-76
2023/08/25 02:25:06;;;;;;;9.57;8.43;;;14.90;99.90;;;;;;5031857;28;20021;-76
2023/08/25 02:27:32;;;;;;;8.85;7.95;;;14.90;99.90;;;;;;5036854;28;20049;-74
2023/08/25 02:29:57;;;;;;;11.05;8.90;;;14.90;99.90;;;;;;5035984;28;20053;-75
2023/08/25 02:32:23;;;;;;;11.32;8.25;;;15.00;99.90;;;;;;5036662;28;20026;-76
2023/08/25 02:34:48;;;;;;;9.50;7.80;;;15.00;99.90;;;;;;5035999;28;20539;-76
2023/08/25 02:37:14;;;;;;;9.80;8.63;;;15.00;99.90;;;;;;5036534;28;20022;-75
2023/08/25 02:39:39;;;;;;;10.82;8.02;;;15.00;99.90;;;;;;5051162;28;20010;-74
2023/08/25 02:42:05;;;;;;;9.45;7.72;;;15.00;99.90;;;;;;5036445;28;20060;-75
2023/08/25 02:44:31;;;;;;;11.18;8.27;;;15.00;99.90;;;;;;5035355;28;20524;-74
2023/08/25 02:46:56;;;;;;;8.70;7.80;;;15.00;99.90;;;;;;5036459;28;20088;-76
2023/08/25 02:49:23;;;;;;;8.82;7.93;;;15.00;99.90;;;;;;5034504;28;20022;-76
2023/08/25 02:51:49;;;;;;;9.80;8.73;;;15.00;99.90;;;;;;5036118;28;20505;-76
2023/08/25 02:54:15;;;;;;;9.52;7.80;;;15.00;99.90;;;;;;5034585;28;20029;-75
2023/08/25 02:56:40;;;;;;;8.40;7.40;;;15.00;99.90;;;;;;5035086;28;20026;-74
2023/08/25 02:59:06;;;;;;;7.93;7.07;;;15.00;99.90;;;;;;5035005;28;20057;-76
2023/08/25 03:01:33;;;;;;;8.15;7.35;;;14.90;99.90;;;;;;5034807;28;20024;-76
2023/08/25 03:03:58;;;;;;;9.07;7.18;;;14.90;99.90;;;;;;5034073;28;20034;-74
2023/08/25 03:06:24;;;;;;;9.45;8.55;;;14.90;99.90;;;;;;5036030;28;20040;-76
2023/08/25 03:08:49;;;;;;;9.20;7.45;;;14.90;99.90;;;;;;5035417;28;20029;-74
2023/08/25 03:11:15;;;;;;;8.27;7.45;;;15.00;99.90;;;;;;5036137;28;20033;-75
2023/08/25 03:13:41;;;;;;;8.82;8.00;;;15.00;99.90;;;;;;5034100;28;20083;-74
2023/08/25 03:16:07;;;;;;;9.32;8.43;;;15.00;99.90;;;;;;5035834;28;20052;-74
2023/08/25 03:18:33;;;;;;;7.47;6.72;;;14.90;99.90;;;;;;5035413;28;20056;-74
2023/08/25 03:20:59;;;;;;;8.70;7.65;;;14.90;99.90;;;;;;5035814;28;20096;-74
2023/08/25 03:23:25;;;;;;;12.25;7.75;;;15.00;99.90;;;;;;5035067;28;20100;-76
2023/08/25 03:25:50;;;;;;;11.70;7.43;;;15.00;99.90;;;;;;5034510;28;20030;-74
2023/08/25 03:28:16;;;;;;;9.82;8.95;;;15.00;99.90;;;;;;5035389;28;20021;-76
2023/08/25 03:30:42;;;;;;;10.80;8.57;;;15.00;99.90;;;;;;5035281;28;20430;-74
2023/08/25 03:33:07;;;;;;;10.40;8.63;;;15.00;99.90;;;;;;5035314;28;20021;-74
2023/08/25 03:35:36;;;;;;;9.52;8.45;;;15.10;99.90;;;;;;5034039;28;20063;-75
2023/08/25 03:38:02;;;;;;;9.48;7.40;;;15.10;99.90;;;;;;5033138;28;20045;-75
2023/08/25 03:40:27;;;;;;;9.98;8.18;;;15.10;99.90;;;;;;5033802;28;20127;-74
2023/08/25 03:42:54;;;;;;;9.60;7.72;;;15.10;99.90;;;;;;5035152;28;20425;-74
2023/08/25 03:45:20;;;;;;;8.95;7.65;;;15.10;99.90;;;;;;5033623;28;20032;-75
2023/08/25 03:47:45;;;;;;;10.48;7.93;;;15.20;99.90;;;;;;5033913;28;20112;-74
2023/08/25 03:50:11;;;;;;;11.60;7.88;;;15.20;99.90;;;;;;5033586;28;20446;-74
2023/08/25 03:52:37;;;;;;;11.70;8.27;;;15.20;99.90;;;;;;5034863;28;20017;-74
2023/08/25 03:55:03;;;;;;;11.68;8.40;;;15.20;99.90;;;;;;5034854;28;20022;-74
2023/08/25 03:57:29;;;;;;;9.07;6.80;;;15.20;99.90;;;;;;5033667;28;20018;-74
2023/08/25 03:59:55;;;;;;;9.65;8.07;;;15.20;99.90;;;;;;5032959;28;20199;-74
2023/08/25 04:02:20;;;;;;;8.60;7.70;;;15.20;99.90;;;;;;5037163;28;20052;-74
2023/08/25 04:04:46;;;;;;;8.93;7.90;;;15.30;99.90;;;;;;5034649;28;20033;-75
2023/08/25 04:07:13;;;;;;;10.20;7.70;;;15.30;99.90;;;;;;5033458;28;20132;-74
2023/08/25 04:09:39;;;;;;;8.32;7.40;;;15.40;99.90;;;;;;5034433;28;20383;-76
2023/08/25 04:12:05;;;;;;;9.60;7.95;;;15.40;99.90;;;;;;5034590;28;20037;-76
2023/08/25 04:14:30;;;;;;;8.32;6.68;;;15.30;99.90;;;;;;5034582;28;20022;-75
2023/08/25 04:16:56;;;;;;;9.50;7.53;;;15.30;99.90;;;;;;5034208;28;20041;-76
2023/08/25 04:19:22;;;;;;;8.57;7.78;;;15.30;99.90;;;;;;5034418;28;20024;-76
2023/08/25 04:21:48;;;;;;;10.32;7.57;;;15.40;99.90;;;;;;5031765;28;20044;-75
2023/08/25 04:24:16;;;;;;;9.77;7.22;;;15.50;99.90;;;;;;5026033;28;20531;-75
2023/08/25 04:26:42;;;;;;;10.77;7.50;;;15.50;99.90;;;;;;5031053;28;20475;-76
2023/08/25 04:29:09;;;;;;;10.02;7.72;;;15.60;99.90;;;;;;5034032;28;20029;-74
2023/08/25 04:31:35;;;;;;;11.02;8.52;;;15.60;99.90;;;;;;5034283;28;20083;-74
2023/08/25 04:34:01;;;;;;;9.93;7.95;;;15.70;99.90;;;;;;5033933;28;20017;-76
2023/08/25 04:36:27;;;;;;;8.65;6.93;;;15.80;99.90;;;;;;5030931;28;20113;-76
2023/08/25 04:38:52;;;;;;;9.80;7.68;;;15.90;99.90;;;;;;5030311;28;20017;-74
2023/08/25 04:41:19;;;;;;;8.15;7.35;;;16.00;99.90;;;;;;5033897;28;21280;-74
2023/08/25 04:43:44;;;;;;;11.10;8.07;;;16.10;99.90;;;;;;5031390;28;20083;-76
2023/08/25 04:46:10;;;;;;;8.88;7.25;;;16.20;99.90;;;;;;5032705;28;20013;-76
2023/08/25 04:48:36;;;;;;;8.30;7.40;;;16.40;99.90;;;;;;5033454;28;20395;-76
2023/08/25 04:51:02;;;;;;;9.38;7.22;;;16.50;99.90;;;;;;5024325;28;20037;-74
2023/08/25 04:53:28;;;;;;;8.15;6.53;;;16.70;99.90;;;;;;5033717;28;20494;-75
2023/08/25 04:55:53;;;;;;;8.07;7.28;;;16.80;99.90;;;;;;5031486;28;20108;-75
2023/08/25 04:58:19;;;;;;;16.90;7.35;;;17.00;99.90;;;;;;5032377;28;20029;-75
2023/08/25 05:00:50;;;;;;;13.23;7.68;;;17.20;99.90;;;;;;5033040;28;20029;-75
2023/08/25 05:03:16;;;;;;;12.07;7.07;;;17.40;99.90;;;;;;5033598;28;20017;-75
2023/08/25 05:05:41;;;;;;;9.95;7.25;;;17.60;99.90;;;;;;5033754;28;20071;-75
2023/08/25 05:08:07;;;;;;;7.97;6.57;;;17.90;99.90;;;;;;5031994;28;20382;-75
2023/08/25 05:10:33;;;;;;;12.57;6.47;;;18.10;99.90;;;;;;5030306;28;20037;-75
2023/08/25 05:12:59;;;;;;;8.13;6.35;;;18.40;99.90;;;;;;5031745;28;20009;-75
2023/08/25 05:15:25;;;;;;;6.78;5.97;;;18.70;99.90;;;;;;5030553;28;20083;-76
2023/08/25 05:17:50;;;;;;;7.80;6.07;;;18.80;99.90;;;;;;5032149;28;20042;-76
2023/08/25 05:20:20;;;;;;;7.20;6.13;;;19.00;99.90;;;;;;5031024;28;20022;-76
2023/08/25 05:22:46;;;;;;;10.20;6.40;;;19.10;99.90;;;;;;5027896;28;20029;-76
2023/08/25 05:25:12;;;;;;;10.10;6.20;;;19.20;99.90;;;;;;5028722;28;20029;-76
2023/08/25 05:27:38;;;;;;;9.45;5.90;;;19.30;99.90;;;;;;5028746;28;20021;-76
2023/08/25 05:30:04;;;;;;;9.50;7.25;;;19.40;99.90;;;;;;5028218;28;20479;-76
2023/08/25 05:32:30;;;;;;;7.43;6.55;;;19.40;99.90;;;;;;5027749;28;20049;-76
2023/08/25 05:34:55;;;;;;;8.32;6.65;;;19.50;99.90;;;;;;5027703;28;20053;-75
2023/08/25 05:37:21;;;;;;;8.15;5.70;;;19.40;99.90;;;;;;5031020;28;20036;-76
2023/08/25 05:39:47;;;;;;;6.55;5.38;;;19.40;99.90;;;;;;5031557;28;20025;-75
2023/08/25 05:42:12;;;;;;;8.18;6.57;;;19.50;99.90;;;;;;5032329;28;20029;-75
2023/08/25 05:44:38;;;;;;;8.55;6.40;;;19.50;99.90;;;;;;5031510;28;20067;-76
2023/08/25 05:47:03;;;;;;;6.60;6.00;;;19.50;99.90;;;;;;5031683;28;20057;-76
2023/08/25 05:49:29;;;;;;;6.60;5.90;;;19.50;99.90;;;;;;5042155;28;20021;-76
2023/08/25 05:51:55;;;;;;;7.18;6.40;;;19.50;99.90;;;;;;5032896;28;20110;-75
2023/08/25 05:54:21;;;;;;;9.75;6.18;;;19.50;99.90;;;;;;5031354;28;20029;-76
2023/08/25 05:56:46;;;;;;;11.23;6.97;;;19.50;99.90;;;;;;5031496;28;20045;-76
2023/08/25 05:59:12;;;;;;;7.47;5.88;;;19.50;99.90;;;;;;5032118;28;20143;-75
2023/08/25 06:01:38;;;;;;;6.78;6.07;;;19.50;99.90;;;;;;5032784;28;20131;-75
2023/08/25 06:04:03;;;;;;;7.80;5.90;;;19.50;99.90;;;;;;5032224;28;20544;-75
2023/08/25 06:06:30;;;;;;;7.38;6.05;;;19.50;99.90;;;;;;5031550;28;20017;-76
2023/08/25 06:08:56;;;;;;;10.25;7.13;;;19.50;99.90;;;;;;5032104;28;20108;-76
2023/08/25 06:11:22;;;;;;;6.82;5.55;;;19.50;99.90;;;;;;5032647;28;20033;-75
2023/08/25 06:13:48;;;;;;;10.27;5.55;;;19.50;99.90;;;;;;5030805;28;20022;-75
2023/08/25 06:16:14;;;;;;;9.10;5.32;;;19.60;99.90;;;;;;5032715;28;20045;-75
2023/08/25 06:18:40;;;;;;;8.57;5.20;;;19.70;99.90;;;;;;5031670;28;20127;-76
2023/08/25 06:21:06;;;;;;;6.57;5.03;;;19.90;96.40;;;;;;5032673;28;20073;-75
2023/08/25 06:23:31;;;;;;;7.10;4.85;;;20.10;93.20;;;;;;5032138;28;20483;-75
2023/08/25 06:25:58;;;;;;;6.90;5.30;;;20.30;93.20;;;;;;5032760;28;20476;-74
2023/08/25 06:28:24;;;;;;;7.47;5.00;;;20.50;98.50;;;;;;5030715;28;20013;-74
2023/08/25 06:30:50;;;;;;;7.38;5.07;;;20.60;99.90;;;;;;5032263;28;20391;-73
2023/08/25 06:33:16;;;;;;;9.75;5.10;;;20.80;99.90;;;;;;5031998;28;20025;-74
2023/08/25 06:35:41;;;;;;;9.15;5.28;;;20.90;99.00;;;;;;5032719;28;20060;-75
2023/08/25 06:38:07;;;;;;;7.07;5.30;;;21.00;95.20;;;;;;5031024;28;20025;-73
2023/08/25 06:40:34;;;;;;;9.77;4.95;;;21.10;90.00;;;;;;5030973;28;20025;-75
2023/08/25 06:43:03;;;;;;;7.30;5.65;;;21.20;91.40;;;;;;5031359;28;20377;-76
2023/08/25 06:45:30;;;;;;;9.43;5.32;;;21.30;91.70;;;;;;5030647;28;20406;-75
2023/08/25 06:47:56;;;;;;;10.00;5.63;;;21.40;95.40;;;;;;5031681;28;20034;-75
2023/08/25 06:50:23;;;;;;;8.40;6.05;;;21.50;99.90;;;;;;5032147;28;20033;-74
2023/08/25 06:52:48;;;;;;;8.75;6.05;;;21.60;99.90;;;;;;5030330;28;20064;-75
2023/08/25 06:55:17;;;;;;;7.25;6.18;;;21.70;99.90;;;;;;5032098;28;20026;-75
2023/08/25 06:57:44;;;;;;;11.27;5.55;;;21.80;99.90;;;;;;5032318;28;20021;-75
2023/08/25 07:00:12;;;;;;;7.97;4.97;;;21.80;99.90;;;;;;5032341;28;20022;-74
2023/08/25 07:02:39;;;;;;;8.82;5.68;;;21.90;99.90;;;;;;5031849;28;20022;-75
2023/08/25 07:05:05;;;;;;;9.82;5.50;;;22.00;92.90;;;;;;5031868;28;20116;-75
2023/08/25 07:07:31;;;;;;;9.02;5.65;;;22.10;86.10;;;;;;5032228;28;20096;-75
2023/08/25 07:09:57;;;;;;;8.60;6.05;;;22.20;86.50;;;;;;5031819;28;20022;-75
2023/08/25 07:12:22;;;;;;;8.20;5.57;;;22.20;90.20;;;;;;5033728;28;20403;-75
2023/08/25 07:14:48;;;;;;;7.88;5.68;;;22.30;91.70;;;;;;5036307;28;20021;-75
2023/08/25 07:17:14;;;;;;;7.20;5.97;;;22.40;93.60;;;;;;5034141;28;20103;-76
2023/08/25 07:19:40;;;;;;;6.40;5.35;;;22.40;95.90;;;;;;5034437;28;20364;-76
2023/08/25 07:22:05;;;;;;;9.05;5.57;;;22.50;98.80;;;;;;5034444;28;20495;-75
2023/08/25 07:24:31;;;;;;;9.15;5.30;;;22.60;96.00;;;;;;5034169;28;20113;-75
2023/08/25 07:26:56;;;;;;;7.28;4.70;;;22.60;93.70;;;;;;5035487;28;20379;-75
2023/08/25 07:29:22;;;;;;;9.80;5.18;;;22.60;87.80;;;;;;5034406;28;20022;-76
2023/08/25 07:31:48;;;;;;;9.82;6.03;;;22.60;89.60;;;;;;5034089;28;20091;-75
2023/08/25 07:34:14;;;;;;;15.10;6.40;;;22.60;90.80;;;;;;5035129;28;20057;-75
2023/08/25 07:36:39;;;;;;;12.70;6.15;;;22.60;95.30;;;;;;5035470;28;20049;-76
2023/08/25 07:39:05;;;;;;;8.30;5.32;;;22.60;99.90;;;;;;5033659;28;20033;-75
2023/08/25 07:41:31;;;;;;;6.05;5.50;;;22.60;99.90;;;;;;5033761;28;20022;-76
2023/08/25 07:43:57;;;;;;;10.70;5.93;;;22.60;97.00;;;;;;5035478;28;20463;-76
2023/08/25 07:46:23;;;;;;;10.02;5.30;;;22.50;89.80;;;;;;5035396;28;20045;-75
2023/08/25 07:48:50;;;;;;;7.28;6.50;;;22.50;90.20;;;;;;5034952;28;20520;-75
2023/08/25 07:51:16;;;;;;;7.22;5.30;;;22.50;87.60;;;;;;5035179;28;20057;-75
2023/08/25 07:53:42;;;;;;;10.00;5.13;;;22.50;84.30;;;;;;5034967;28;20040;-76
2023/08/25 07:56:08;;;;;;;7.15;4.95;;;22.50;84.70;;;;;;5034944;28;20387;-77
2023/08/25 07:58:33;;;;;;;6.95;5.43;;;22.60;89.10;;;;;;5035275;28;20025;-75
2023/08/25 08:01:02;;;;;;;5.50;5.00;;;22.70;88.60;;;;;;5034421;28;20072;-76
2023/08/25 08:03:28;;;;;;;6.72;6.10;;;22.90;85.30;;;;;;5033503;28;20022;-76
2023/08/25 08:05:54;;;;;;;5.75;4.85;;;23.30;84.60;;;;;;5034942;28;20159;-76
2023/08/25 08:08:19;;;;;;;6.35;5.57;;;23.70;80.70;;;;;;5034602;28;20021;-78
2023/08/25 08:10:45;;;;;;;7.57;5.15;;;24.00;75.60;;;;;;5033273;28;20395;-76
2023/08/25 08:13:11;;;;;;;11.95;5.75;;;24.30;73.40;;;;;;5034773;28;20148;-75
2023/08/25 08:15:37;;;;;;;7.85;5.53;;;24.60;71.30;;;;;;5034747;28;20475;-75
2023/08/25 08:18:04;;;;;;;8.95;5.35;;;24.70;68.00;;;;;;5034680;28;20407;-75
2023/08/25 08:20:30;;;;;;;7.50;5.95;;;24.80;69.30;;;;;;5033236;28;20024;-76
2023/08/25 08:22:56;;;;;;;11.20;6.00;;;24.90;70.00;;;;;;5034238;28;20104;-76
2023/08/25 08:25:21;;;;;;;12.93;5.88;;;24.90;68.70;;;;;;5034170;28;20072;-76
2023/08/25 08:27:47;;;;;;;9.23;6.13;;;24.90;72.30;;;;;;5033444;28;20017;-75
2023/08/25 08:30:16;;;;;;;12.27;7.43;;;24.80;71.20;;;;;;5034083;28;20022;-75
2023/08/25 08:32:42;;;;;;;10.27;7.05;;;24.80;73.30;;;;;;5034686;28;20522;-76
2023/08/25 08:35:08;;;;;;;11.40;6.60;;;24.70;74.30;;;;;;5033281;28;20173;-76
2023/08/25 08:37:34;;;;;;;11.50;6.13;;;24.80;75.10;;;;;;5034549;28;20025;-75
2023/08/25 08:40:00;;;;;;;8.93;6.18;;;24.80;73.60;;;;;;5033696;28;20538;-75
2023/08/25 08:42:28;;;;;;;9.57;6.20;;;25.10;73.70;;;;;;5032994;28;20116;-76
2023/08/25 08:45:00;;;;;;;7.65;6.40;;;25.40;72.50;;;;;;5032775;28;20025;-76
2023/08/25 08:47:26;;;;;;;15.10;7.10;;;25.50;71.10;;;;;;5032733;28;20055;-76
2023/08/25 08:49:53;;;;;;;6.40;5.80;;;25.80;71.00;;;;;;5033007;28;20495;-76
2023/08/25 08:52:19;;;;;;;9.00;7.00;;;26.00;70.20;;;;;;5033931;28;20113;-75
2023/08/25 08:54:44;;;;;;;12.25;7.53;;;26.20;71.20;;;;;;5032474;28;20112;-76
2023/08/25 08:57:11;;;;;;;12.75;7.05;;;26.30;70.60;;;;;;5033775;28;20025;-77
2023/08/25 08:59:37;;;;;;;11.30;6.70;;;26.40;69.20;;;;;;5031575;28;20459;-76
2023/08/25 09:02:06;;;;;;;12.23;6.90;;;26.40;69.60;;;;;;5033757;28;20036;-77
2023/08/25 09:04:33;;;;;;;9.77;7.40;;;26.40;69.10;;;;;;5025330;28;20426;-77
2023/08/25 09:07:00;;;;;;;10.85;6.63;;;26.30;68.80;;;;;;5033527;28;20036;-77
2023/08/25 09:09:26;;;;;;;9.55;7.18;;;26.40;68.80;;;;;;5033758;28;20018;-77
2023/08/25 09:11:52;;;;;;;13.18;8.70;;;26.40;70.10;;;;;;5033452;28;20069;-76
2023/08/25 09:14:26;;;;;;;10.95;7.18;;;26.40;71.80;;;;;;5032393;28;20037;-76
2023/08/25 09:17:13;;;;;;;7.18;6.43;;;26.70;71.70;;;;;;5033157;28;20056;-76
2023/08/25 09:19:39;;;;;;;9.68;7.43;;;26.70;69.70;;;;;;5033319;28;20036;-76
2023/08/25 09:22:08;;;;;;;11.07;8.18;;;26.80;69.20;;;;;;5033061;28;20368;-77
2023/08/25 09:24:37;;;;;;;10.65;6.88;;;27.00;72.80;;;;;;5033256;28;20021;-77
2023/08/25 09:27:03;;;;;;;13.80;8.65;;;27.00;68.90;;;;;;5033090;28;20021;-76
2023/08/25 09:29:44;;;;;;;13.63;8.38;;;26.90;67.70;;;;;;5031958;28;20124;-76
2023/08/25 09:32:15;;;;;;;13.73;8.95;;;26.80;67.10;;;;;;5021456;28;20045;-77
2023/08/25 09:34:42;;;;;;;15.75;9.20;;;26.70;68.40;;;;;;5032187;28;20030;-77
2023/08/25 09:37:08;;;;;;;22.33;10.27;;;26.80;68.50;;;;;;5033323;28;20447;-76
2023/08/25 09:39:44;;;;;;;12.73;8.82;;;26.70;67.70;;;;;;5031513;28;20059;-78
2023/08/25 09:42:10;;;;;;;15.30;8.18;;;26.70;68.00;;;;;;5031971;28;20028;-77
2023/08/25 09:44:36;;;;;;;15.75;9.88;;;26.90;69.10;;;;;;5033029;28;20025;-77
2023/08/25 09:47:02;;;;;;;12.57;9.23;;;26.90;68.00;;;;;;5031688;28;20022;-78
2023/08/25 09:49:38;;;;;;;10.73;8.60;;;27.20;68.90;;;;;;5032581;28;20026;-77
2023/08/25 09:52:05;;;;;;;9.15;8.25;;;27.20;66.70;;;;;;5032959;28;20041;-77
2023/08/25 09:54:33;;;;;;;9.35;8.40;;;27.50;68.60;;;;;;5032360;28;20021;-76
2023/08/25 09:56:59;;;;;;;12.00;8.30;;;27.60;66.60;;;;;;5031659;28;20030;-77
2023/08/25 09:59:24;;;;;;;12.27;8.52;;;27.70;67.30;;;;;;5032451;28;20107;-76
2023/08/25 10:01:51;;;;;;;11.27;8.57;;;27.70;66.30;;;;;;5033071;28;20053;-76
2023/08/25 10:04:17;;;;;;;11.48;9.07;;;27.80;65.30;;;;;;5032222;28;20029;-78
2023/08/25 10:06:42;;;;;;;17.38;8.95;;;27.80;65.00;;;;;;5032992;28;20030;-78
2023/08/25 10:09:09;;;;;;;13.10;8.70;;;27.70;65.50;;;;;;5032058;28;20024;-77
2023/08/25 10:11:44;;;;;;;10.05;8.25;;;27.90;66.10;;;;;;5032870;28;20037;-76
2023/08/25 10:14:12;;;;;;;14.00;9.90;;;28.10;66.30;;;;;;5032834;28;20028;-78
2023/08/25 10:16:52;;;;;;;11.80;8.63;;;28.10;66.40;;;;;;5031238;28;20056;-77
2023/08/25 10:19:25;;;;;;;14.20;9.45;;;28.30;65.70;;;;;;5020224;28;20544;-77
2023/08/25 10:21:51;;;;;;;13.38;9.20;;;28.30;66.50;;;;;;5030328;28;20545;-76
2023/08/25 10:24:22;;;;;;;10.05;9.00;;;28.50;65.20;;;;;;5031068;28;20025;-77
2023/08/25 10:26:51;;;;;;;10.02;8.43;;;28.50;66.30;;;;;;5032406;28;20021;-78
2023/08/25 10:29:20;;;;;;;11.77;8.27;;;28.60;65.20;;;;;;5031342;28;20112;-77
2023/08/25 10:31:59;;;;;;;13.77;9.13;;;28.70;65.20;;;;;;5031325;28;20048;-77
2023/08/25 10:34:36;;;;;;;11.02;9.27;;;28.60;65.10;;;;;;5032060;28;20017;-78
2023/08/25 10:37:07;;;;;;;10.52;9.35;;;28.50;64.70;;;;;;5020930;28;20419;-77
2023/08/25 10:39:50;;;;;;;12.85;10.20;;;28.60;66.40;;;;;;5031895;28;20027;-77
2023/08/25 10:42:20;;;;;;;11.48;10.07;;;28.30;67.40;;;;;;5032226;28;20118;-76
2023/08/25 10:44:47;;;;;;;12.40;9.75;;;28.20;67.70;;;;;;5030884;28;20372;-77
2023/08/25 10:47:18;;;;;;;16.80;10.75;;;28.30;67.70;;;;;;5035261;28;20037;-77
2023/08/25 10:49:45;;;;;;;12.35;9.73;;;28.40;68.60;;;;;;5034585;28;20085;-77
2023/08/25 10:52:18;;;;;;;13.07;10.20;;;28.50;68.50;;;;;;5036407;28;20040;-78
2023/08/25 10:54:45;;;;;;;12.18;9.93;;;28.60;67.20;;;;;;5034591;28;20025;-78
2023/08/25 10:57:29;;;;;;;10.68;9.23;;;28.70;67.60;;;;;;5036432;28;20083;-76
2023/08/25 11:00:25;;;;;;;17.38;10.45;;;28.70;67.20;;;;;;5029976;28;20025;-76
2023/08/25 11:02:51;;;;;;;14.98;9.68;;;28.70;66.40;;;;;;5022205;28;20439;-77
2023/08/25 11:05:26;;;;;;;13.05;10.45;;;28.90;68.50;;;;;;5033637;28;20064;-76
2023/08/25 11:07:53;;;;;;;13.05;11.20;;;29.00;67.80;;;;;;5034732;28;20040;-77
2023/08/25 11:10:21;;;;;;;13.90;10.27;;;28.90;65.30;;;;;;5034650;28;20461;-77
2023/08/25 11:12:51;;;;;;;13.65;11.23;;;28.80;65.50;;;;;;5034762;28;20063;-77
2023/08/25 11:15:16;;;;;;;12.15;10.10;;;28.80;66.40;;;;;;5034641;28;20091;-77
2023/08/25 11:17:42;;;;;;;16.42;12.38;;;29.00;67.70;;;;;;5035497;28;20041;-77
2023/08/25 11:20:08;;;;;;;14.95;10.52;;;28.90;65.60;;;;;;5019883;28;20046;-77
2023/08/25 11:22:34;;;;;;;12.38;10.00;;;29.10;67.20;;;;;;5032787;28;20037;-76
2023/08/25 11:25:00;;;;;;;13.65;10.50;;;29.20;66.10;;;;;;5023654;28;20037;-76
2023/08/25 11:27:28;;;;;;;17.02;11.60;;;29.20;65.10;;;;;;5031633;28;20090;-77
2023/08/25 11:30:09;;;;;;;14.90;12.18;;;29.10;65.00;;;;;;5032158;28;20128;-78
2023/08/25 11:32:36;;;;;;;14.10;11.07;;;29.10;65.90;;;;;;5027561;28;20034;-77
2023/08/25 11:35:05;;;;;;;16.08;12.00;;;29.10;65.00;;;;;;5030158;28;20068;-78
2023/08/25 11:37:30;;;;;;;12.65;10.30;;;29.20;66.30;;;;;;5034984;28;20537;-78
2023/08/25 11:39:56;;;;;;;11.98;9.18;;;29.40;65.20;;;;;;5034743;28;20033;-78
2023/08/25 11:42:22;;;;;;;13.70;10.27;;;29.50;65.00;;;;;;5031537;28;20455;-78
2023/08/25 11:44:47;;;;;;;13.55;9.27;;;29.70;64.40;;;;;;5033704;28;20075;-79
2023/08/25 11:47:13;;;;;;;17.25;10.73;;;29.80;63.50;;;;;;5026972;28;20018;-77
2023/08/25 11:49:44;;;;;;;10.57;8.25;;;29.70;62.40;;;;;;5032823;28;20107;-78
2023/08/25 11:52:10;;;;;;;14.10;9.48;;;29.80;61.50;;;;;;5029621;28;20033;-77
2023/08/25 11:54:49;;;;;;;19.60;16.60;;;29.90;61.20;;;;;;5032056;28;20025;-81
2023/08/25 11:57:15;;;;;;;29.92;23.92;;;29.80;60.00;;;;;;5019612;28;20033;-76
2023/08/25 11:59:49;;;;;;;76.43;48.35;;;29.70;61.10;;;;;;5033583;28;20021;-76
2023/08/25 12:02:15;;;;;;;19.92;13.13;;;29.70;61.20;;;;;;5032820;28;20052;-76
2023/08/25 12:04:55;;;;;;;17.30;11.88;;;29.80;61.50;;;;;;5031096;28;20021;-75
2023/08/25 12:07:27;;;;;;;18.83;12.98;;;29.80;61.20;;;;;;5030226;28;20026;-75
2023/08/25 12:09:57;;;;;;;12.98;10.35;;;29.90;61.00;;;;;;5032678;28;20108;-75
2023/08/25 12:12:23;;;;;;;11.10;9.88;;;29.80;61.20;;;;;;5034057;28;20129;-76
2023/08/25 12:14:53;;;;;;;12.00;10.52;;;30.00;62.80;;;;;;5027843;28;20092;-75
2023/08/25 12:17:26;;;;;;;13.35;9.90;;;30.00;61.30;;;;;;5029754;28;20053;-75
2023/08/25 12:19:52;;;;;;;11.48;10.27;;;30.20;62.20;;;;;;5033700;28;20033;-76
2023/08/25 12:22:18;;;;;;;12.18;9.35;;;30.30;61.70;;;;;;5031507;28;20026;-75
2023/08/25 12:24:45;;;;;;;11.65;9.88;;;30.20;60.40;;;;;;5033074;28;20029;-75
2023/08/25 12:27:10;;;;;;;13.77;9.32;;;30.40;60.40;;;;;;5031124;28;20029;-75
2023/08/25 12:29:36;;;;;;;11.55;8.35;;;30.40;61.20;;;;;;5033584;28;20094;-75
2023/08/25 12:32:04;;;;;;;11.07;8.65;;;30.50;59.30;;;;;;5032413;28;20041;-75
2023/08/25 12:34:30;;;;;;;17.27;9.80;;;30.20;58.90;;;;;;5033359;28;20022;-77
2023/08/25 12:36:56;;;;;;;15.07;9.20;;;30.10;58.80;;;;;;5032477;28;20036;-77
2023/08/25 12:39:22;;;;;;;12.82;8.52;;;30.20;59.40;;;;;;5026874;28;20044;-78
2023/08/25 12:41:48;;;;;;;11.23;8.30;;;30.20;58.20;;;;;;5032191;28;20025;-77